sensor_id;sensor_type;location;lat;lon;timestamp;pressure;altitude;pressure_sealevel;temperature;humidity
69035;BME280;56091;55.756;37.412;2022-09-09T00:03:53;99750.53;;;6.18;72.75
69035;BME280;56091;55.756;37.412;2022-09-09T00:09:10;99758.38;;;6.13;73.15
69035;BME280;56091;55.756;37.412;2022-09-09T00:14:27;99756.50;;;6.20;73.11
69035;BME280;56091;55.756;37.412;2022-09-09T00:19:48;99762.28;;;6.17;73.16
69035;BME280;56091;55.756;37.412;2022-09-09T00:25:08;99757.16;;;6.15;73.39
69035;BME280;56091;55.756;37.412;2022-09-09T00:30:26;99768.59;;;6.29;73.32
69035;BME280;56091;55.756;37.412;2022-09-09T00:35:39;99778.31;;;6.23;73.10
69035;BME280;56091;55.756;37.412;2022-09-09T00:40:49;99769.88;;;6.27;72.95
69035;BME280;56091;55.756;37.412;2022-09-09T00:46:13;99778.50;;;6.29;73.13
69035;BME280;56091;55.756;37.412;2022-09-09T00:56:47;99793.66;;;6.03;74.17
69035;BME280;56091;55.756;37.412;2022-09-09T01:01:51;99791.41;;;5.93;74.60
69035;BME280;56091;55.756;37.412;2022-09-09T01:07:03;99792.44;;;5.92;75.29
69035;BME280;56091;55.756;37.412;2022-09-09T01:12:16;99755.47;;;5.62;74.75
69035;BME280;56091;55.756;37.412;2022-09-09T01:17:44;99791.50;;;5.73;75.79
69035;BME280;56091;55.756;37.412;2022-09-09T01:28:05;99804.47;;;5.63;76.25
69035;BME280;56091;55.756;37.412;2022-09-09T01:33:16;99758.84;;;5.31;76.52
69035;BME280;56091;55.756;37.412;2022-09-09T01:38:22;99812.09;;;5.66;76.25
69035;BME280;56091;55.756;37.412;2022-09-09T01:43:26;99808.81;;;5.57;76.34
69035;BME280;56091;55.756;37.412;2022-09-09T01:48:31;99818.69;;;5.63;76.01
69035;BME280;56091;55.756;37.412;2022-09-09T01:53:43;99824.28;;;5.48;76.35
69035;BME280;56091;55.756;37.412;2022-09-09T02:09:25;99838.47;;;5.36;77.79
69035;BME280;56091;55.756;37.412;2022-09-09T02:14:34;99845.28;;;5.32;77.27
69035;BME280;56091;55.756;37.412;2022-09-09T02:19:41;99835.78;;;5.29;77.31
69035;BME280;56091;55.756;37.412;2022-09-09T02:24:57;99843.63;;;5.37;77.43
69035;BME280;56091;55.756;37.412;2022-09-09T02:30:04;99849.19;;;5.36;77.41
69035;BME280;56091;55.756;37.412;2022-09-09T02:35:15;99857.81;;;5.38;77.26
69035;BME280;56091;55.756;37.412;2022-09-09T02:40:18;99813.38;;;4.83;77.91
69035;BME280;56091;55.756;37.412;2022-09-09T02:45:42;99850.41;;;5.06;78.58
69035;BME280;56091;55.756;37.412;2022-09-09T02:56:21;99877.56;;;5.03;79.03
69035;BME280;56091;55.756;37.412;2022-09-09T03:01:23;99881.47;;;4.94;78.92
69035;BME280;56091;55.756;37.412;2022-09-09T03:06:25;99888.03;;;4.92;79.36
69035;BME280;56091;55.756;37.412;2022-09-09T03:11:35;99878.97;;;4.86;79.41
69035;BME280;56091;55.756;37.412;2022-09-09T03:16:36;99879.38;;;4.76;79.86
69035;BME280;56091;55.756;37.412;2022-09-09T03:21:39;99894.19;;;4.85;79.55
69035;BME280;56091;55.756;37.412;2022-09-09T03:26:42;99890.69;;;4.85;79.85
69035;BME280;56091;55.756;37.412;2022-09-09T03:31:48;99876.28;;;4.79;79.54
69035;BME280;56091;55.756;37.412;2022-09-09T03:36:49;99900.16;;;4.94;79.25
69035;BME280;56091;55.756;37.412;2022-09-09T03:41:50;99903.50;;;5.03;79.26
69035;BME280;56091;55.756;37.412;2022-09-09T03:46:52;99905.94;;;4.98;78.82
69035;BME280;56091;55.756;37.412;2022-09-09T03:51:53;99910.47;;;5.04;79.38
69035;BME280;56091;55.756;37.412;2022-09-09T03:56:57;99904.72;;;5.07;78.88
69035;BME280;56091;55.756;37.412;2022-09-09T04:01:59;99920.59;;;5.22;78.31
69035;BME280;56091;55.756;37.412;2022-09-09T04:07:01;99916.91;;;5.30;77.83
69035;BME280;56091;55.756;37.412;2022-09-09T04:12:02;99912.56;;;5.28;77.44
69035;BME280;56091;55.756;37.412;2022-09-09T04:17:05;99917.09;;;5.28;77.34
69035;BME280;56091;55.756;37.412;2022-09-09T04:22:07;99917.91;;;5.42;76.53
69035;BME280;56091;55.756;37.412;2022-09-09T04:27:08;99926.34;;;5.45;76.07
69035;BME280;56091;55.756;37.412;2022-09-09T04:32:10;99918.13;;;5.54;75.36
69035;BME280;56091;55.756;37.412;2022-09-09T04:37:13;99933.34;;;5.66;74.82
69035;BME280;56091;55.756;37.412;2022-09-09T04:42:14;99932.72;;;5.78;74.46
69035;BME280;56091;55.756;37.412;2022-09-09T04:47:17;99940.13;;;5.89;73.73
69035;BME280;56091;55.756;37.412;2022-09-09T04:52:18;99936.41;;;6.17;72.81
69035;BME280;56091;55.756;37.412;2022-09-09T04:57:20;99933.09;;;6.21;72.48
69035;BME280;56091;55.756;37.412;2022-09-09T05:02:21;99925.47;;;6.25;71.61
69035;BME280;56091;55.756;37.412;2022-09-09T05:07:22;99941.25;;;6.53;70.98
69035;BME280;56091;55.756;37.412;2022-09-09T05:12:24;99957.28;;;6.67;70.19
69035;BME280;56091;55.756;37.412;2022-09-09T05:17:26;99959.91;;;6.80;69.48
69035;BME280;56091;55.756;37.412;2022-09-09T05:22:28;99960.09;;;6.78;69.33
69035;BME280;56091;55.756;37.412;2022-09-09T05:27:29;99967.91;;;6.87;68.50
69035;BME280;56091;55.756;37.412;2022-09-09T05:32:33;99955.88;;;7.02;68.39
69035;BME280;56091;55.756;37.412;2022-09-09T05:37:35;99956.72;;;7.28;67.22
69035;BME280;56091;55.756;37.412;2022-09-09T05:42:36;99961.59;;;7.45;66.17
69035;BME280;56091;55.756;37.412;2022-09-09T05:47:38;99958.63;;;7.53;65.68
69035;BME280;56091;55.756;37.412;2022-09-09T05:52:42;99975.91;;;7.63;65.29
69035;BME280;56091;55.756;37.412;2022-09-09T05:57:49;99967.56;;;7.72;65.24
69035;BME280;56091;55.756;37.412;2022-09-09T06:02:52;99977.47;;;7.96;64.04
69035;BME280;56091;55.756;37.412;2022-09-09T06:07:55;99960.16;;;7.92;63.53
69035;BME280;56091;55.756;37.412;2022-09-09T06:12:57;99989.63;;;8.24;62.90
69035;BME280;56091;55.756;37.412;2022-09-09T06:18:02;99966.13;;;8.19;61.98
69035;BME280;56091;55.756;37.412;2022-09-09T06:23:03;99995.19;;;8.48;61.04
69035;BME280;56091;55.756;37.412;2022-09-09T06:28:05;99997.72;;;8.61;60.08
69035;BME280;56091;55.756;37.412;2022-09-09T06:33:06;100000.94;;;8.51;59.84
69035;BME280;56091;55.756;37.412;2022-09-09T06:38:09;100002.88;;;8.81;58.67
69035;BME280;56091;55.756;37.412;2022-09-09T06:43:11;99990.78;;;8.72;57.35
69035;BME280;56091;55.756;37.412;2022-09-09T06:48:20;100012.53;;;8.89;56.31
69035;BME280;56091;55.756;37.412;2022-09-09T06:53:21;99981.78;;;8.96;54.73
69035;BME280;56091;55.756;37.412;2022-09-09T06:58:22;100028.44;;;9.39;54.48
69035;BME280;56091;55.756;37.412;2022-09-09T07:03:24;100011.72;;;9.49;54.62
69035;BME280;56091;55.756;37.412;2022-09-09T07:08:26;100019.28;;;9.82;53.71
69035;BME280;56091;55.756;37.412;2022-09-09T07:13:29;100024.84;;;10.46;52.08
69035;BME280;56091;55.756;37.412;2022-09-09T07:18:32;100032.09;;;10.69;50.33
69035;BME280;56091;55.756;37.412;2022-09-09T07:23:36;100010.06;;;10.49;51.29
69035;BME280;56091;55.756;37.412;2022-09-09T07:28:38;100047.09;;;10.77;50.78
69035;BME280;56091;55.756;37.412;2022-09-09T07:33:39;100037.03;;;11.13;47.85
69035;BME280;56091;55.756;37.412;2022-09-09T07:38:46;100010.81;;;11.25;46.69
69035;BME280;56091;55.756;37.412;2022-09-09T07:43:49;100026.50;;;11.57;45.98
69035;BME280;56091;55.756;37.412;2022-09-09T07:48:53;100044.50;;;11.80;45.16
69035;BME280;56091;55.756;37.412;2022-09-09T07:54:05;100061.91;;;11.56;45.61
69035;BME280;56091;55.756;37.412;2022-09-09T07:59:11;100069.19;;;11.14;45.77
69035;BME280;56091;55.756;37.412;2022-09-09T08:04:15;100060.81;;;10.75;46.43
69035;BME280;56091;55.756;37.412;2022-09-09T08:09:21;100052.41;;;11.12;46.52
69035;BME280;56091;55.756;37.412;2022-09-09T08:14:26;100061.38;;;11.01;47.23
69035;BME280;56091;55.756;37.412;2022-09-09T08:19:30;100073.38;;;10.82;47.29
69035;BME280;56091;55.756;37.412;2022-09-09T08:24:34;100075.13;;;11.40;44.89
69035;BME280;56091;55.756;37.412;2022-09-09T08:29:35;100063.41;;;11.35;44.15
69035;BME280;56091;55.756;37.412;2022-09-09T08:34:36;100064.69;;;11.32;44.46
69035;BME280;56091;55.756;37.412;2022-09-09T08:39:42;100066.69;;;11.82;43.98
69035;BME280;56091;55.756;37.412;2022-09-09T08:50:19;100070.81;;;12.36;42.61
69035;BME280;56091;55.756;37.412;2022-09-09T09:11:50;100090.59;;;11.73;46.21
69035;BME280;56091;55.756;37.412;2022-09-09T09:17:06;100063.13;;;11.36;46.60
69035;BME280;56091;55.756;37.412;2022-09-09T09:27:40;100083.69;;;12.11;44.65
69035;BME280;56091;55.756;37.412;2022-09-09T09:38:25;100085.16;;;12.19;43.57
69035;BME280;56091;55.756;37.412;2022-09-09T09:43:35;100083.09;;;11.93;42.50
69035;BME280;56091;55.756;37.412;2022-09-09T09:48:40;100078.19;;;12.40;41.95
69035;BME280;56091;55.756;37.412;2022-09-09T09:53:41;100075.06;;;12.65;41.54
69035;BME280;56091;55.756;37.412;2022-09-09T10:03:52;100084.44;;;12.41;42.65
69035;BME280;56091;55.756;37.412;2022-09-09T10:08:53;100078.34;;;12.50;42.70
69035;BME280;56091;55.756;37.412;2022-09-09T10:19:03;100088.06;;;12.68;41.79
69035;BME280;56091;55.756;37.412;2022-09-09T10:35:11;100094.59;;;12.50;42.87
69035;BME280;56091;55.756;37.412;2022-09-09T10:51:00;100098.84;;;13.24;40.89
69035;BME280;56091;55.756;37.412;2022-09-09T10:56:09;100102.06;;;12.82;40.79
69035;BME280;56091;55.756;37.412;2022-09-09T11:01:24;100101.09;;;13.11;40.61
69035;BME280;56091;55.756;37.412;2022-09-09T11:06:35;100099.63;;;12.81;41.79
69035;BME280;56091;55.756;37.412;2022-09-09T11:11:46;100098.06;;;12.85;41.92
69035;BME280;56091;55.756;37.412;2022-09-09T11:17:00;100100.44;;;12.81;40.91
69035;BME280;56091;55.756;37.412;2022-09-09T11:38:25;100091.34;;;13.32;38.82
69035;BME280;56091;55.756;37.412;2022-09-09T11:43:54;100083.84;;;13.61;38.78
69035;BME280;56091;55.756;37.412;2022-09-09T11:49:02;100101.91;;;12.89;41.45
69035;BME280;56091;55.756;37.412;2022-09-09T11:54:29;100103.78;;;12.33;42.49
69035;BME280;56091;55.756;37.412;2022-09-09T11:59:32;100108.09;;;12.00;42.73
69035;BME280;56091;55.756;37.412;2022-09-09T12:04:37;100075.50;;;11.89;42.50
69035;BME280;56091;55.756;37.412;2022-09-09T12:09:50;100094.94;;;11.75;42.91
69035;BME280;56091;55.756;37.412;2022-09-09T12:36:05;100068.19;;;13.24;39.17
69035;BME280;56091;55.756;37.412;2022-09-09T12:41:24;100090.06;;;13.61;38.90
69035;BME280;56091;55.756;37.412;2022-09-09T12:46:45;100098.50;;;13.65;38.82
69035;BME280;56091;55.756;37.412;2022-09-09T12:51:46;100088.16;;;13.62;38.60
69035;BME280;56091;55.756;37.412;2022-09-09T12:56:48;100077.16;;;13.24;39.06
69035;BME280;56091;55.756;37.412;2022-09-09T13:01:58;100064.72;;;12.62;40.75
69035;BME280;56091;55.756;37.412;2022-09-09T13:07:07;100094.34;;;12.91;40.77
69035;BME280;56091;55.756;37.412;2022-09-09T13:12:20;100086.31;;;12.40;40.43
69035;BME280;56091;55.756;37.412;2022-09-09T13:17:23;100087.31;;;12.90;39.93
69035;BME280;56091;55.756;37.412;2022-09-09T13:22:34;100086.69;;;13.76;38.48
69035;BME280;56091;55.756;37.412;2022-09-09T13:27:41;100074.00;;;13.82;37.62
69035;BME280;56091;55.756;37.412;2022-09-09T13:32:43;100082.53;;;13.96;37.96
69035;BME280;56091;55.756;37.412;2022-09-09T13:37:43;100084.16;;;13.70;39.10
69035;BME280;56091;55.756;37.412;2022-09-09T13:42:44;100089.41;;;13.49;39.52
69035;BME280;56091;55.756;37.412;2022-09-09T13:47:46;100062.97;;;12.95;41.02
69035;BME280;56091;55.756;37.412;2022-09-09T13:52:52;100089.97;;;12.68;42.33
69035;BME280;56091;55.756;37.412;2022-09-09T13:57:58;100086.38;;;12.62;42.31
69035;BME280;56091;55.756;37.412;2022-09-09T14:03:01;100078.78;;;12.81;41.44
69035;BME280;56091;55.756;37.412;2022-09-09T14:08:06;100075.09;;;13.09;41.00
69035;BME280;56091;55.756;37.412;2022-09-09T14:13:09;100057.34;;;13.68;39.84
69035;BME280;56091;55.756;37.412;2022-09-09T14:18:11;100070.53;;;13.59;39.50
69035;BME280;56091;55.756;37.412;2022-09-09T14:23:13;100069.63;;;13.76;39.15
69035;BME280;56091;55.756;37.412;2022-09-09T14:28:15;100072.94;;;15.89;35.19
69035;BME280;56091;55.756;37.412;2022-09-09T14:33:16;100070.88;;;20.61;27.99
69035;BME280;56091;55.756;37.412;2022-09-09T14:38:18;100059.91;;;20.89;26.60
69035;BME280;56091;55.756;37.412;2022-09-09T14:43:18;100048.00;;;21.71;25.42
69035;BME280;56091;55.756;37.412;2022-09-09T14:48:20;100073.03;;;23.92;22.84
69035;BME280;56091;55.756;37.412;2022-09-09T14:53:21;100076.22;;;23.68;22.73
69035;BME280;56091;55.756;37.412;2022-09-09T14:58:22;100078.97;;;22.08;24.75
69035;BME280;56091;55.756;37.412;2022-09-09T15:03:23;100077.72;;;23.92;22.35
69035;BME280;56091;55.756;37.412;2022-09-09T15:08:24;100066.50;;;23.71;22.32
69035;BME280;56091;55.756;37.412;2022-09-09T15:13:26;100069.66;;;22.72;23.06
69035;BME280;56091;55.756;37.412;2022-09-09T15:18:27;100062.19;;;21.87;24.59
69035;BME280;56091;55.756;37.412;2022-09-09T15:23:31;100055.13;;;20.20;26.59
69035;BME280;56091;55.756;37.412;2022-09-09T15:28:34;100069.22;;;18.94;28.65
69035;BME280;56091;55.756;37.412;2022-09-09T15:33:38;100079.63;;;17.05;31.93
69035;BME280;56091;55.756;37.412;2022-09-09T15:38:39;100068.25;;;15.64;34.58
69035;BME280;56091;55.756;37.412;2022-09-09T15:43:43;100080.94;;;14.70;36.29
69035;BME280;56091;55.756;37.412;2022-09-09T15:48:45;100044.38;;;13.75;37.81
69035;BME280;56091;55.756;37.412;2022-09-09T15:53:47;100100.44;;;13.42;39.17
69035;BME280;56091;55.756;37.412;2022-09-09T15:58:49;100079.88;;;12.63;40.95
69035;BME280;56091;55.756;37.412;2022-09-09T16:03:50;100069.50;;;12.04;42.74
69035;BME280;56091;55.756;37.412;2022-09-09T16:08:53;100108.00;;;11.95;43.53
69035;BME280;56091;55.756;37.412;2022-09-09T16:13:58;100097.78;;;11.68;44.43
69035;BME280;56091;55.756;37.412;2022-09-09T16:19:03;100103.41;;;11.38;44.67
69035;BME280;56091;55.756;37.412;2022-09-09T16:24:06;100101.94;;;11.18;45.48
69035;BME280;56091;55.756;37.412;2022-09-09T16:29:07;100114.06;;;11.16;45.94
69035;BME280;56091;55.756;37.412;2022-09-09T16:34:08;100122.53;;;10.96;46.70
69035;BME280;56091;55.756;37.412;2022-09-09T16:39:12;100095.81;;;10.70;46.94
69035;BME280;56091;55.756;37.412;2022-09-09T16:44:15;100121.97;;;10.82;47.82
69035;BME280;56091;55.756;37.412;2022-09-09T16:49:17;100131.47;;;10.72;47.87
69035;BME280;56091;55.756;37.412;2022-09-09T16:54:18;100139.66;;;10.66;48.02
69035;BME280;56091;55.756;37.412;2022-09-09T16:59:20;100115.75;;;10.46;48.85
69035;BME280;56091;55.756;37.412;2022-09-09T17:04:26;100136.63;;;10.50;48.71
69035;BME280;56091;55.756;37.412;2022-09-09T17:09:28;100125.69;;;10.33;48.94
69035;BME280;56091;55.756;37.412;2022-09-09T17:14:29;100134.13;;;10.37;49.75
69035;BME280;56091;55.756;37.412;2022-09-09T17:19:31;100134.84;;;10.32;49.89
69035;BME280;56091;55.756;37.412;2022-09-09T17:24:32;100128.56;;;10.20;51.75
69035;BME280;56091;55.756;37.412;2022-09-09T17:29:34;100128.09;;;10.11;51.21
69035;BME280;56091;55.756;37.412;2022-09-09T17:34:36;100119.63;;;9.96;50.43
69035;BME280;56091;55.756;37.412;2022-09-09T17:39:38;100149.06;;;10.09;50.51
69035;BME280;56091;55.756;37.412;2022-09-09T17:44:39;100151.63;;;10.04;50.67
69035;BME280;56091;55.756;37.412;2022-09-09T17:49:40;100154.41;;;9.97;50.51
69035;BME280;56091;55.756;37.412;2022-09-09T17:54:41;100152.78;;;9.96;52.00
69035;BME280;56091;55.756;37.412;2022-09-09T17:59:42;100149.13;;;9.91;51.21
69035;BME280;56091;55.756;37.412;2022-09-09T18:04:43;100128.53;;;9.66;51.46
69035;BME280;56091;55.756;37.412;2022-09-09T18:09:43;100137.94;;;9.75;51.16
69035;BME280;56091;55.756;37.412;2022-09-09T18:14:44;100139.19;;;9.73;51.45
69035;BME280;56091;55.756;37.412;2022-09-09T18:19:49;100142.63;;;9.80;53.78
69035;BME280;56091;55.756;37.412;2022-09-09T18:24:52;100142.59;;;9.68;54.16
69035;BME280;56091;55.756;37.412;2022-09-09T18:29:52;100130.25;;;9.61;53.90
69035;BME280;56091;55.756;37.412;2022-09-09T18:34:56;100151.97;;;9.66;54.92
69035;BME280;56091;55.756;37.412;2022-09-09T18:39:58;100147.19;;;9.49;53.07
69035;BME280;56091;55.756;37.412;2022-09-09T18:44:59;100155.72;;;9.46;53.89
69035;BME280;56091;55.756;37.412;2022-09-09T18:50:00;100156.03;;;9.38;54.48
69035;BME280;56091;55.756;37.412;2022-09-09T18:55:02;100154.03;;;9.33;54.69
69035;BME280;56091;55.756;37.412;2022-09-09T19:00:05;100159.41;;;9.33;55.89
69035;BME280;56091;55.756;37.412;2022-09-09T19:05:07;100163.94;;;9.33;56.74
69035;BME280;56091;55.756;37.412;2022-09-09T19:10:08;100160.28;;;9.27;55.63
69035;BME280;56091;55.756;37.412;2022-09-09T19:15:09;100164.25;;;9.25;56.93
69035;BME280;56091;55.756;37.412;2022-09-09T19:20:10;100156.19;;;9.25;55.59
69035;BME280;56091;55.756;37.412;2022-09-09T19:25:10;100155.53;;;9.11;54.26
69035;BME280;56091;55.756;37.412;2022-09-09T19:30:11;100160.06;;;9.10;55.04
69035;BME280;56091;55.756;37.412;2022-09-09T19:35:13;100158.47;;;9.03;55.68
69035;BME280;56091;55.756;37.412;2022-09-09T19:40:16;100085.06;;;8.58;55.79
69035;BME280;56091;55.756;37.412;2022-09-09T19:45:20;100156.09;;;8.94;55.15
69035;BME280;56091;55.756;37.412;2022-09-09T19:50:21;100172.63;;;8.98;54.85
69035;BME280;56091;55.756;37.412;2022-09-09T19:55:22;100187.09;;;8.97;54.55
69035;BME280;56091;55.756;37.412;2022-09-09T20:00:24;100181.72;;;8.97;55.02
69035;BME280;56091;55.756;37.412;2022-09-09T20:05:26;100183.81;;;8.95;54.68
69035;BME280;56091;55.756;37.412;2022-09-09T20:10:27;100187.56;;;8.94;56.44
69035;BME280;56091;55.756;37.412;2022-09-09T20:15:28;100190.91;;;8.89;56.52
69035;BME280;56091;55.756;37.412;2022-09-09T20:20:29;100200.25;;;8.87;57.92
69035;BME280;56091;55.756;37.412;2022-09-09T20:25:35;100190.66;;;8.72;57.08
69035;BME280;56091;55.756;37.412;2022-09-09T20:30:36;100174.47;;;8.54;58.01
69035;BME280;56091;55.756;37.412;2022-09-09T20:35:37;100186.25;;;8.53;57.40
69035;BME280;56091;55.756;37.412;2022-09-09T20:40:38;100202.63;;;8.51;57.32
69035;BME280;56091;55.756;37.412;2022-09-09T20:45:41;100200.13;;;8.50;59.63
69035;BME280;56091;55.756;37.412;2022-09-09T20:50:46;100203.75;;;8.37;57.62
69035;BME280;56091;55.756;37.412;2022-09-09T20:55:52;100197.91;;;8.40;57.91
69035;BME280;56091;55.756;37.412;2022-09-09T21:00:58;100181.28;;;8.25;58.79
69035;BME280;56091;55.756;37.412;2022-09-09T21:06:00;100207.94;;;8.26;59.03
69035;BME280;56091;55.756;37.412;2022-09-09T21:11:01;100148.06;;;7.80;59.59
69035;BME280;56091;55.756;37.412;2022-09-09T21:16:03;100199.53;;;8.16;59.30
69035;BME280;56091;55.756;37.412;2022-09-09T21:21:06;100209.69;;;8.14;61.15
69035;BME280;56091;55.756;37.412;2022-09-09T21:26:07;100203.53;;;8.07;62.85
69035;BME280;56091;55.756;37.412;2022-09-09T21:31:16;100215.34;;;7.99;63.34
69035;BME280;56091;55.756;37.412;2022-09-09T21:36:18;100210.84;;;7.86;63.00
69035;BME280;56091;55.756;37.412;2022-09-09T21:41:18;100220.19;;;7.84;61.99
69035;BME280;56091;55.756;37.412;2022-09-09T21:46:22;100211.88;;;7.85;59.46
69035;BME280;56091;55.756;37.412;2022-09-09T21:51:25;100147.59;;;7.52;60.79
69035;BME280;56091;55.756;37.412;2022-09-09T21:56:26;100215.81;;;7.89;60.25
69035;BME280;56091;55.756;37.412;2022-09-09T22:01:33;100199.53;;;7.77;59.74
69035;BME280;56091;55.756;37.412;2022-09-09T22:06:34;100173.38;;;7.59;61.24
69035;BME280;56091;55.756;37.412;2022-09-09T22:11:36;100213.34;;;7.81;60.86
69035;BME280;56091;55.756;37.412;2022-09-09T22:16:37;100221.00;;;7.77;60.30
69035;BME280;56091;55.756;37.412;2022-09-09T22:21:38;100215.03;;;7.75;59.38
69035;BME280;56091;55.756;37.412;2022-09-09T22:26:39;100215.63;;;7.84;60.47
69035;BME280;56091;55.756;37.412;2022-09-09T22:31:39;100214.81;;;7.77;59.41
69035;BME280;56091;55.756;37.412;2022-09-09T22:36:40;100212.81;;;7.66;61.52
69035;BME280;56091;55.756;37.412;2022-09-09T22:41:41;100213.22;;;7.62;62.14
69035;BME280;56091;55.756;37.412;2022-09-09T22:46:42;100204.84;;;7.46;62.88
69035;BME280;56091;55.756;37.412;2022-09-09T22:51:43;100213.72;;;7.46;63.74
69035;BME280;56091;55.756;37.412;2022-09-09T22:56:48;100215.94;;;7.49;63.46
69035;BME280;56091;55.756;37.412;2022-09-09T23:01:51;100219.47;;;7.50;63.09
69035;BME280;56091;55.756;37.412;2022-09-09T23:06:54;100224.44;;;7.46;61.19
69035;BME280;56091;55.756;37.412;2022-09-09T23:11:57;100223.63;;;7.46;61.10
69035;BME280;56091;55.756;37.412;2022-09-09T23:16:58;100226.69;;;7.49;61.53
69035;BME280;56091;55.756;37.412;2022-09-09T23:21:59;100225.91;;;7.42;63.52
69035;BME280;56091;55.756;37.412;2022-09-09T23:27:01;100225.72;;;7.37;62.01
69035;BME280;56091;55.756;37.412;2022-09-09T23:32:03;100229.00;;;7.39;61.72
69035;BME280;56091;55.756;37.412;2022-09-09T23:37:05;100196.22;;;7.17;63.21
69035;BME280;56091;55.756;37.412;2022-09-09T23:42:11;100226.16;;;7.27;63.46
69035;BME280;56091;55.756;37.412;2022-09-09T23:47:13;100229.44;;;7.29;62.29
69035;BME280;56091;55.756;37.412;2022-09-09T23:52:15;100220.56;;;7.22;62.08
69035;BME280;56091;55.756;37.412;2022-09-09T23:57:17;100232.38;;;7.21;63.56
